createdAt,value
2022-08-02T00:00:35.359Z,21.50
2022-08-02T00:03:03.446Z,21.50
2022-08-02T00:05:31.568Z,21.50
2022-08-02T00:07:59.775Z,21.50
2022-08-02T00:10:28.462Z,21.50
2022-08-02T00:12:58.890Z,21.50
2022-08-02T00:15:28.487Z,21.50
2022-08-02T00:17:56.544Z,21.50
2022-08-02T00:20:24.550Z,21.40
2022-08-02T00:22:52.566Z,21.40
2022-08-02T00:25:20.582Z,21.40
2022-08-02T00:27:48.539Z,21.30
2022-08-02T00:30:16.573Z,21.30
2022-08-02T00:32:45.926Z,21.30
2022-08-02T00:35:13.986Z,21.30
2022-08-02T00:37:42.735Z,21.30
2022-08-02T00:40:12.240Z,21.20
2022-08-02T00:42:40.596Z,21.20
2022-08-02T00:45:09.610Z,21.20
2022-08-02T00:47:37.725Z,21.20
2022-08-02T00:50:07.953Z,21.20
2022-08-02T00:52:35.944Z,21.10
2022-08-02T00:55:04.084Z,21.10
2022-08-02T00:57:32.133Z,21.10
2022-08-02T01:00:00.162Z,21.10
2022-08-02T01:02:28.222Z,21.10
2022-08-02T01:04:56.129Z,21.10
2022-08-02T01:07:25.715Z,21.10
2022-08-02T01:09:53.905Z,21.10
2022-08-02T01:12:21.949Z,21.10
2022-08-02T01:14:52.634Z,21.00
2022-08-02T01:17:29.551Z,21.00
2022-08-02T01:20:09.649Z,21.00
2022-08-02T01:23:01.463Z,21.00
2022-08-02T01:25:43.469Z,21.00
2022-08-02T01:28:34.048Z,20.90
2022-08-02T01:31:09.082Z,20.90
2022-08-02T01:33:43.333Z,20.90
2022-08-02T01:36:15.128Z,20.90
2022-08-02T01:38:47.426Z,20.90
2022-08-02T01:41:20.028Z,20.90
2022-08-02T01:43:52.587Z,20.80
2022-08-02T01:46:22.667Z,20.80
2022-08-02T01:48:54.508Z,20.70
2022-08-02T01:51:44.034Z,20.70
2022-08-02T01:54:16.621Z,20.70
2022-08-02T01:56:46.522Z,20.70
2022-08-02T01:59:20.232Z,20.70
2022-08-02T02:01:50.801Z,20.70
2022-08-02T02:04:20.804Z,20.70
2022-08-02T02:06:50.282Z,20.70
2022-08-02T02:09:19.108Z,20.70
2022-08-02T02:12:11.592Z,20.70
2022-08-02T02:14:40.579Z,20.70
2022-08-02T02:18:11.267Z,20.70
2022-08-02T02:20:01.374Z,20.70
2022-08-02T02:22:29.539Z,20.70
2022-08-02T02:24:57.587Z,20.60
2022-08-02T02:27:26.577Z,20.60
2022-08-02T02:29:57.493Z,20.60
2022-08-02T02:32:28.495Z,20.50
2022-08-02T02:34:59.087Z,20.50
2022-08-02T02:37:29.147Z,20.50
2022-08-02T02:39:58.165Z,20.40
2022-08-02T02:42:29.915Z,20.40
2022-08-02T02:45:01.109Z,20.40
2022-08-02T02:47:40.424Z,20.40
2022-08-02T02:50:10.882Z,20.40
2022-08-02T02:52:40.763Z,20.40
2022-08-02T02:55:11.153Z,20.40
2022-08-02T02:57:40.050Z,20.40
2022-08-02T03:00:11.968Z,20.40
2022-08-02T03:02:42.232Z,20.30
2022-08-02T03:05:12.929Z,20.30
2022-08-02T03:07:41.220Z,20.30
2022-08-02T03:10:10.689Z,20.30
2022-08-02T03:12:39.142Z,20.30
2022-08-02T03:15:13.941Z,20.30
2022-08-02T03:17:43.485Z,20.30
2022-08-02T03:20:14.063Z,20.30
2022-08-02T03:22:42.762Z,20.20
2022-08-02T03:25:11.642Z,20.20
2022-08-02T03:27:40.016Z,20.20
2022-08-02T03:30:11.921Z,20.10
2022-08-02T03:32:41.998Z,20.10
2022-08-02T03:35:12.602Z,20.10
2022-08-02T03:37:41.578Z,20.10
2022-08-02T03:40:12.075Z,20.10
2022-08-02T03:42:41.449Z,20.10
2022-08-02T03:45:14.212Z,20.00
2022-08-02T03:47:43.600Z,20.00
2022-08-02T03:50:14.103Z,20.10
2022-08-02T03:52:43.574Z,20.10
2022-08-02T03:55:13.616Z,20.00
2022-08-02T03:57:43.046Z,19.90
2022-08-02T04:00:18.553Z,19.90
2022-08-02T04:02:46.617Z,19.90
2022-08-02T04:05:14.746Z,19.90
2022-08-02T04:08:02.467Z,19.80
2022-08-02T04:10:31.621Z,19.90
2022-08-02T04:13:00.070Z,19.90
2022-08-02T04:15:29.470Z,19.90
2022-08-02T04:18:02.902Z,19.90
2022-08-02T04:20:36.079Z,19.80
2022-08-02T04:23:07.678Z,19.80
2022-08-02T04:25:40.073Z,19.70
2022-08-02T04:28:16.732Z,19.70
2022-08-02T04:30:48.186Z,19.70
2022-08-02T04:33:16.516Z,19.70
2022-08-02T04:35:45.458Z,19.70
2022-08-02T04:38:14.621Z,19.70
2022-08-02T04:40:50.805Z,19.70
2022-08-02T04:43:18.894Z,19.70
2022-08-02T04:45:49.534Z,19.70
2022-08-02T04:48:17.545Z,19.70
2022-08-02T04:50:45.510Z,19.70
2022-08-02T04:53:13.631Z,19.70
2022-08-02T04:55:41.702Z,19.70
2022-08-02T04:58:36.946Z,19.80
2022-08-02T05:00:59.151Z,19.80
2022-08-02T05:03:27.269Z,19.80
2022-08-02T05:05:55.409Z,19.80
2022-08-02T05:08:23.385Z,19.90
2022-08-02T05:10:51.458Z,20.00
2022-08-02T05:13:19.481Z,20.00
2022-08-02T05:15:49.733Z,20.10
2022-08-02T05:18:19.233Z,20.20
2022-08-02T05:20:47.251Z,20.30
2022-08-02T05:23:15.334Z,20.40
2022-08-02T05:25:43.554Z,20.40
2022-08-02T05:28:11.955Z,20.40
2022-08-02T05:30:40.511Z,20.40
2022-08-02T05:33:09.145Z,20.40
2022-08-02T05:35:38.498Z,20.40
2022-08-02T05:38:10.161Z,20.40
2022-08-02T05:40:54.253Z,20.30
2022-08-02T05:43:24.147Z,20.20
2022-08-02T05:45:53.659Z,20.20
2022-08-02T05:48:25.334Z,20.10
2022-08-02T05:51:03.861Z,20.10
2022-08-02T05:53:39.952Z,20.10
2022-08-02T05:56:18.556Z,20.10
2022-08-02T05:58:52.184Z,20.10
2022-08-02T06:01:28.215Z,20.10
2022-08-02T06:04:01.256Z,20.20
2022-08-02T06:06:33.523Z,20.10
2022-08-02T06:09:04.090Z,20.10
2022-08-02T06:11:37.288Z,20.10
2022-08-02T06:14:07.122Z,20.20
2022-08-02T06:16:37.615Z,20.10
2022-08-02T06:19:12.657Z,20.10
2022-08-02T06:22:33.663Z,20.20
2022-08-02T06:24:33.818Z,20.20
2022-08-02T06:27:03.441Z,20.20
2022-08-02T06:29:38.699Z,20.20
2022-08-02T06:32:08.810Z,20.10
2022-08-02T06:34:38.284Z,20.10
2022-08-02T06:37:16.156Z,20.10
2022-08-02T06:39:46.597Z,20.20
2022-08-02T06:42:27.201Z,20.20
2022-08-02T06:44:58.034Z,20.30
2022-08-02T06:47:26.985Z,20.40
2022-08-02T06:49:56.292Z,20.50
2022-08-02T06:52:29.679Z,20.60
2022-08-02T06:54:59.787Z,20.70
2022-08-02T06:57:27.989Z,20.80
2022-08-02T06:59:56.089Z,20.90
2022-08-02T07:02:24.462Z,21.00
2022-08-02T07:04:52.538Z,21.10
2022-08-02T07:07:20.594Z,21.10
2022-08-02T07:09:56.733Z,21.20
2022-08-02T07:12:30.985Z,21.20
2022-08-02T07:14:59.308Z,21.20
2022-08-02T07:17:27.373Z,21.10
2022-08-02T07:19:55.506Z,21.10
2022-08-02T07:22:24.559Z,21.10
2022-08-02T07:24:54.973Z,21.10
2022-08-02T07:27:23.162Z,21.10
2022-08-02T07:29:51.563Z,21.00
2022-08-02T07:32:21.059Z,21.10
2022-08-02T07:34:51.240Z,21.10
2022-08-02T07:37:35.694Z,21.20
2022-08-02T07:40:15.241Z,21.30
2022-08-02T07:42:49.772Z,21.30
2022-08-02T07:45:17.715Z,21.30
2022-08-02T07:47:46.570Z,21.40
2022-08-02T07:50:17.206Z,21.40
2022-08-02T07:52:46.134Z,21.40
2022-08-02T07:55:17.856Z,21.50
2022-08-02T07:57:47.132Z,21.50
2022-08-02T08:00:17.375Z,21.50
2022-08-02T08:02:46.192Z,21.50
2022-08-02T08:05:14.979Z,21.60
2022-08-02T08:07:43.044Z,21.60
2022-08-02T08:10:11.656Z,21.70
2022-08-02T08:12:41.057Z,21.70
2022-08-02T08:15:10.231Z,21.70
2022-08-02T08:17:38.702Z,21.80
2022-08-02T08:20:07.926Z,21.80
2022-08-02T08:22:35.994Z,21.80
2022-08-02T08:25:04.215Z,21.80
2022-08-02T08:27:32.287Z,21.90
2022-08-02T08:30:01.698Z,21.90
2022-08-02T08:32:29.733Z,21.90
2022-08-02T08:34:57.745Z,22.00
2022-08-02T08:37:25.734Z,22.00
2022-08-02T08:39:58.100Z,22.00
2022-08-02T08:42:27.290Z,22.10
2022-08-02T08:44:57.438Z,22.10
2022-08-02T08:47:34.792Z,22.20
2022-08-02T08:50:05.515Z,22.20
2022-08-02T08:52:37.509Z,22.30
2022-08-02T08:55:06.669Z,22.30
2022-08-02T08:57:36.634Z,22.30
2022-08-02T09:00:05.769Z,22.40
2022-08-02T09:02:36.057Z,22.40
2022-08-02T09:05:04.279Z,22.50
2022-08-02T09:07:32.298Z,22.50
2022-08-02T09:10:00.361Z,22.60
2022-08-02T09:12:28.383Z,22.60
2022-08-02T09:14:56.368Z,22.60
2022-08-02T09:17:24.337Z,22.70
2022-08-02T09:20:08.425Z,22.80
2022-08-02T09:22:36.518Z,22.90
2022-08-02T09:25:04.831Z,22.90
2022-08-02T09:27:38.201Z,22.90
2022-08-02T09:30:15.482Z,22.90
2022-08-02T09:32:47.885Z,23.00
2022-08-02T09:36:07.116Z,23.10
2022-08-02T09:38:21.056Z,23.10
2022-08-02T09:40:49.052Z,23.20
2022-08-02T09:43:17.560Z,23.30
2022-08-02T09:45:45.724Z,23.40
2022-08-02T09:48:14.004Z,23.60
2022-08-02T09:50:45.560Z,23.70
2022-08-02T09:53:14.427Z,23.80
2022-08-02T09:55:43.973Z,24.00
2022-08-02T09:58:19.353Z,24.20
2022-08-02T10:00:55.386Z,24.40
2022-08-02T10:03:29.062Z,24.60
2022-08-02T10:06:05.312Z,24.80
2022-08-02T10:08:34.227Z,24.80
2022-08-02T10:11:03.520Z,24.80
2022-08-02T10:13:32.989Z,24.90
2022-08-02T10:16:02.437Z,24.90
2022-08-02T10:18:39.928Z,24.80
2022-08-02T10:21:15.095Z,24.80
2022-08-02T10:23:46.165Z,24.90
2022-08-02T10:26:17.503Z,24.80
2022-08-02T10:28:48.415Z,24.80
2022-08-02T10:31:20.270Z,24.90
2022-08-02T10:33:50.802Z,25.00
2022-08-02T10:36:20.917Z,24.90
2022-08-02T10:38:48.965Z,24.90
2022-08-02T10:41:37.025Z,25.10
2022-08-02T10:44:05.837Z,25.00
2022-08-02T10:46:35.740Z,25.00
2022-08-02T10:52:06.961Z,25.10
2022-08-02T10:54:37.197Z,25.30
2022-08-02T10:57:15.946Z,25.40
2022-08-02T10:59:44.687Z,25.40
2022-08-02T11:02:14.058Z,25.40
2022-08-02T11:05:06.253Z,25.50
2022-08-02T11:07:38.630Z,25.60
2022-08-02T11:10:29.309Z,26.00
2022-08-02T11:13:02.265Z,26.80
2022-08-02T11:15:30.544Z,27.50
2022-08-02T11:17:59.966Z,28.10
2022-08-02T11:20:28.916Z,28.60
2022-08-02T11:23:45.130Z,29.00
2022-08-02T11:26:46.276Z,29.10
2022-08-02T11:29:15.940Z,29.10
2022-08-02T11:31:45.733Z,29.10
2022-08-02T11:34:37.010Z,29.20
2022-08-02T11:37:03.010Z,29.30
2022-08-02T11:39:32.443Z,29.60
2022-08-02T11:42:01.805Z,30.20
2022-08-02T11:44:31.209Z,30.90
2022-08-02T11:47:00.457Z,31.40
2022-08-02T11:49:29.278Z,31.10
2022-08-02T11:52:01.066Z,31.30
2022-08-02T11:54:33.051Z,31.60
2022-08-02T11:57:19.266Z,31.20
2022-08-02T11:59:51.389Z,31.00
2022-08-02T12:02:20.934Z,31.20
2022-08-02T12:04:58.407Z,31.20
2022-08-02T12:07:34.788Z,31.20
2022-08-02T12:10:07.712Z,31.20
2022-08-02T12:12:47.929Z,31.60
2022-08-02T12:15:17.334Z,32.00
2022-08-02T12:18:05.824Z,32.10
2022-08-02T12:20:37.743Z,32.30
2022-08-02T12:23:06.181Z,32.20
2022-08-02T12:25:35.923Z,32.20
2022-08-02T12:28:25.679Z,32.20
2022-08-02T12:30:55.641Z,31.80
2022-08-02T12:33:25.072Z,31.50
2022-08-02T12:35:53.399Z,31.40
2022-08-02T12:38:21.677Z,31.60
2022-08-02T12:40:52.215Z,31.90
2022-08-02T12:43:22.259Z,32.30
2022-08-02T12:45:53.086Z,32.30
2022-08-02T12:48:37.728Z,32.10
2022-08-02T12:51:20.545Z,32.00
2022-08-02T12:53:48.609Z,32.10
2022-08-02T12:56:31.322Z,32.30
2022-08-02T12:58:59.457Z,32.50
2022-08-02T13:01:29.888Z,32.50
2022-08-02T13:04:11.188Z,32.30
2022-08-02T13:06:45.546Z,32.40
2022-08-02T13:09:16.066Z,32.80
2022-08-02T13:11:45.895Z,32.90
2022-08-02T13:14:14.566Z,32.70
2022-08-02T13:16:43.994Z,33.00
2022-08-02T13:19:13.152Z,33.30
2022-08-02T13:22:00.867Z,33.60
2022-08-02T13:24:38.446Z,33.60
2022-08-02T13:27:11.744Z,33.30
2022-08-02T13:29:40.083Z,33.00
2022-08-02T13:32:08.191Z,32.90
2022-08-02T13:34:36.518Z,32.60
2022-08-02T13:37:04.974Z,32.60
2022-08-02T13:39:32.919Z,32.90
2022-08-02T13:42:00.931Z,33.10
2022-08-02T13:44:30.354Z,33.20
2022-08-02T13:46:58.493Z,33.50
2022-08-02T13:49:50.992Z,33.30
2022-08-02T13:52:15.209Z,32.90
2022-08-02T13:54:43.589Z,32.90
2022-08-02T13:57:11.582Z,32.80
2022-08-02T13:59:57.051Z,32.40
2022-08-02T14:02:28.256Z,32.30
2022-08-02T14:04:56.872Z,32.10
2022-08-02T14:07:24.936Z,31.80
2022-08-02T14:09:53.119Z,31.70
2022-08-02T14:12:21.160Z,31.80
2022-08-02T14:14:51.102Z,32.10
2022-08-02T14:17:19.797Z,32.50
2022-08-02T14:19:47.816Z,33.00
2022-08-02T14:22:15.875Z,33.50
2022-08-02T14:24:44.479Z,33.80
2022-08-02T14:27:12.686Z,34.00
2022-08-02T14:29:40.789Z,34.40
2022-08-02T14:32:10.925Z,34.90
2022-08-02T14:34:39.324Z,35.00
2022-08-02T14:37:07.292Z,35.10
2022-08-02T14:39:42.852Z,35.20
2022-08-02T14:42:23.432Z,35.30
2022-08-02T14:47:21.224Z,35.70
2022-08-02T14:49:50.574Z,35.60
2022-08-02T14:52:19.024Z,35.30
2022-08-02T14:54:47.479Z,35.50
2022-08-02T14:57:16.119Z,35.60
2022-08-02T14:59:44.080Z,35.60
2022-08-02T15:02:13.400Z,35.60
2022-08-02T15:04:44.005Z,35.90
2022-08-02T15:07:13.694Z,36.10
2022-08-02T15:09:42.310Z,36.10
2022-08-02T15:12:11.968Z,35.90
2022-08-02T15:14:40.986Z,35.60
2022-08-02T15:17:09.608Z,35.70
2022-08-02T15:19:57.790Z,35.70
2022-08-02T15:22:27.125Z,35.40
2022-08-02T15:24:57.522Z,35.80
2022-08-02T15:27:25.541Z,36.60
2022-08-02T15:29:59.905Z,37.30
2022-08-02T15:34:56.408Z,38.20
2022-08-02T15:37:24.426Z,38.50
2022-08-02T15:39:54.908Z,38.90
2022-08-02T15:42:30.560Z,39.20
2022-08-02T15:44:59.495Z,39.60
2022-08-02T15:47:27.610Z,40.00
2022-08-02T15:49:55.795Z,40.00
2022-08-02T15:52:26.735Z,39.90
2022-08-02T15:54:56.234Z,39.50
2022-08-02T15:57:24.622Z,38.60
2022-08-02T15:59:53.298Z,38.40
2022-08-02T16:02:21.679Z,38.40
2022-08-02T16:04:50.403Z,38.40
2022-08-02T16:07:18.442Z,38.40
2022-08-02T16:09:46.506Z,38.30
2022-08-02T16:12:16.246Z,38.20
2022-08-02T16:14:45.423Z,38.20
2022-08-02T16:17:13.489Z,38.30
2022-08-02T16:19:48.186Z,38.30
2022-08-02T16:22:17.562Z,38.10
2022-08-02T16:24:45.650Z,37.90
2022-08-02T16:27:15.182Z,37.90
2022-08-02T16:29:43.262Z,38.00
2022-08-02T16:32:12.519Z,38.00
2022-08-02T16:35:06.947Z,37.90
2022-08-02T16:37:28.873Z,37.60
2022-08-02T16:40:16.889Z,37.40
2022-08-02T16:42:50.247Z,37.30
2022-08-02T16:45:20.134Z,36.90
2022-08-02T16:47:55.903Z,36.40
2022-08-02T16:50:28.563Z,36.20
2022-08-02T16:52:58.033Z,36.10
2022-08-02T16:55:30.316Z,35.80
2022-08-02T16:58:00.566Z,35.50
2022-08-02T17:00:29.639Z,35.10
2022-08-02T17:02:59.413Z,34.90
2022-08-02T17:05:37.486Z,35.00
2022-08-02T17:08:17.000Z,34.70
2022-08-02T17:10:45.809Z,34.50
2022-08-02T17:13:15.428Z,34.40
2022-08-02T17:16:08.695Z,34.20
2022-08-02T17:18:33.920Z,34.20
2022-08-02T17:21:04.216Z,34.30
2022-08-02T17:24:05.791Z,34.40
2022-08-02T17:26:20.545Z,34.40
2022-08-02T17:29:16.042Z,34.20
2022-08-02T17:31:44.333Z,34.10
2022-08-02T17:34:26.919Z,33.90
2022-08-02T17:36:56.628Z,33.60
2022-08-02T17:39:24.615Z,33.40
2022-08-02T17:42:02.835Z,33.10
2022-08-02T17:44:37.024Z,32.80
2022-08-02T17:47:08.473Z,32.50
2022-08-02T17:49:44.165Z,32.20
2022-08-02T17:55:04.304Z,31.60
2022-08-02T17:57:57.260Z,31.30
2022-08-02T18:00:22.439Z,31.10
2022-08-02T18:02:55.058Z,30.90
2022-08-02T18:05:38.874Z,30.70
2022-08-02T18:08:08.637Z,30.50
2022-08-02T18:10:37.029Z,30.30
2022-08-02T18:13:05.395Z,30.10
2022-08-02T18:15:34.948Z,29.90
2022-08-02T18:18:03.340Z,29.60
2022-08-02T18:20:31.356Z,29.40
2022-08-02T18:22:59.333Z,29.30
2022-08-02T18:25:37.252Z,29.10
2022-08-02T18:28:12.684Z,28.80
2022-08-02T18:30:42.104Z,28.60
2022-08-02T18:33:59.212Z,28.50
2022-08-02T18:35:58.234Z,28.40
2022-08-02T18:38:28.343Z,28.20
2022-08-02T18:40:58.753Z,28.10
2022-08-02T18:43:29.478Z,28.00
2022-08-02T18:46:06.845Z,27.90
2022-08-02T18:48:46.233Z,27.70
2022-08-02T18:51:15.273Z,27.50
2022-08-02T18:53:44.089Z,27.40
2022-08-02T18:56:19.940Z,27.30
2022-08-02T19:01:31.799Z,27.00
2022-08-02T19:04:02.706Z,26.80
2022-08-02T19:06:30.993Z,26.60
2022-08-02T19:09:05.928Z,26.50
2022-08-02T19:11:41.043Z,26.30
2022-08-02T19:14:09.328Z,26.20
2022-08-02T19:16:38.700Z,26.10
2022-08-02T19:19:07.188Z,25.80
2022-08-02T19:22:15.775Z,25.70
2022-08-02T19:24:23.494Z,25.60
2022-08-02T19:26:52.689Z,25.50
2022-08-02T19:29:42.064Z,25.40
2022-08-02T19:32:39.755Z,25.30
2022-08-02T19:35:01.053Z,25.20
2022-08-02T19:37:37.064Z,25.10
2022-08-02T19:40:07.899Z,25.10
2022-08-02T19:43:05.295Z,25.00
2022-08-02T19:45:49.035Z,24.90
2022-08-02T19:48:15.649Z,24.80
2022-08-02T19:50:44.296Z,24.70
2022-08-02T19:53:18.123Z,24.60
2022-08-02T19:56:01.138Z,24.50
2022-08-02T19:58:32.392Z,24.40
2022-08-02T20:01:01.295Z,24.40
2022-08-02T20:03:51.418Z,24.30
2022-08-02T20:06:19.055Z,24.30
2022-08-02T20:08:53.446Z,24.10
2022-08-02T20:11:25.524Z,24.10
2022-08-02T20:13:54.938Z,24.00
2022-08-02T20:16:27.888Z,24.00
2022-08-02T20:18:58.034Z,23.80
2022-08-02T20:21:34.346Z,23.70
2022-08-02T20:24:06.342Z,23.60
2022-08-02T20:26:35.404Z,23.50
2022-08-02T20:29:04.482Z,23.40
2022-08-02T20:31:32.550Z,23.40
2022-08-02T20:34:02.022Z,23.20
2022-08-02T20:36:30.154Z,23.20
2022-08-02T20:38:58.241Z,23.10
2022-08-02T20:41:37.288Z,23.10
2022-08-02T20:44:15.527Z,23.10
2022-08-02T20:46:59.133Z,23.10
2022-08-02T20:49:41.366Z,23.10
2022-08-02T20:52:24.088Z,23.00
2022-08-02T20:54:53.126Z,23.00
2022-08-02T20:57:48.822Z,22.90
2022-08-02T21:00:11.607Z,22.80
2022-08-02T21:02:39.658Z,22.70
2022-08-02T21:05:17.155Z,22.60
2022-08-02T21:07:47.771Z,22.60
2022-08-02T21:10:23.899Z,22.50
2022-08-02T21:12:52.307Z,22.30
2022-08-02T21:15:20.768Z,22.20
2022-08-02T21:17:57.644Z,22.10
2022-08-02T21:20:32.259Z,22.00
2022-08-02T21:23:00.413Z,21.80
2022-08-02T21:25:50.573Z,21.60
2022-08-02T21:28:17.712Z,21.50
2022-08-02T21:30:46.353Z,21.50
2022-08-02T21:33:23.110Z,21.50
2022-08-02T21:35:53.195Z,21.60
2022-08-02T21:38:35.911Z,21.60
2022-08-02T21:41:06.921Z,21.50
2022-08-02T21:43:40.402Z,21.30
2022-08-02T21:46:14.572Z,21.20
2022-08-02T21:48:43.166Z,21.10
2022-08-02T21:51:16.020Z,21.00
2022-08-02T21:54:17.698Z,20.90
2022-08-02T21:56:32.479Z,20.90
2022-08-02T21:59:01.689Z,20.90
2022-08-02T22:01:52.677Z,21.00
2022-08-02T22:04:22.017Z,21.00
2022-08-02T22:06:51.589Z,21.00
2022-08-02T22:09:44.175Z,20.90
2022-08-02T22:12:10.073Z,20.90
2022-08-02T22:14:41.196Z,20.80
2022-08-02T22:19:57.867Z,20.60
2022-08-02T22:22:28.151Z,20.50
2022-08-02T22:24:57.251Z,20.50
2022-08-02T22:28:34.989Z,20.50
2022-08-02T22:30:14.033Z,20.40
2022-08-02T22:33:15.533Z,20.40
2022-08-02T22:35:43.735Z,20.40
2022-08-02T22:38:17.079Z,20.30
2022-08-02T22:40:46.625Z,20.20
2022-08-02T22:43:22.634Z,20.10
2022-08-02T22:45:51.673Z,20.10
2022-08-02T22:48:20.445Z,20.10
2022-08-02T22:50:48.762Z,20.00
2022-08-02T22:53:24.677Z,20.10
2022-08-02T22:56:04.449Z,20.00
2022-08-02T22:58:32.834Z,19.90
2022-08-02T22:58:41.050Z,31.80
2022-08-02T22:59:04.484Z,20.70
2022-08-02T23:01:01.046Z,19.80
2022-08-02T23:03:29.683Z,19.80
2022-08-02T23:05:58.019Z,19.70
2022-08-02T23:08:27.527Z,19.60
2022-08-02T23:10:55.615Z,19.50
2022-08-02T23:13:28.211Z,19.50
2022-08-02T23:16:14.412Z,19.50
2022-08-02T23:19:14.278Z,19.50
2022-08-02T23:21:46.256Z,19.50
2022-08-02T23:24:33.196Z,19.50
2022-08-02T23:27:01.692Z,19.40
2022-08-02T23:29:29.665Z,19.40
2022-08-02T23:31:57.883Z,19.40
2022-08-02T23:34:27.315Z,19.30
2022-08-02T23:36:55.309Z,19.30
2022-08-02T23:39:23.527Z,19.30
2022-08-02T23:41:55.009Z,19.30
2022-08-02T23:44:23.961Z,19.40
2022-08-02T23:46:52.433Z,19.40
2022-08-02T23:49:20.889Z,19.30
2022-08-02T23:51:49.575Z,19.30
2022-08-02T23:54:17.948Z,19.20
2022-08-02T23:56:46.091Z,19.20
2022-08-02T23:59:15.578Z,19.20
